Terminal Aerodrome Forecast
Issued by NWS

Home | Current Version | Previous Version | Text Only | Print | Product List | Glossary On
Versions: 1 2 3 4 5 6 7 8 9 10 11 12 13
000
FTUS44 KCRP 290525
TAFALI
TAF
KALI 290525Z 2906/3006 14010KT P6SM FEW015 BKN200
     FM290800 14004KT P6SM SCT015 BKN250
      TEMPO 2909/2913 BKN015 BKN250
     FM291500 16010KT P6SM SCT025 BKN250
     FM291900 15014G21KT P6SM SCT050 SCT250
     FM300300 14007KT P6SM FEW020=

USA.gov is the U.S. government's official web portal to all federal, state and local government web resources and services.